Terminal Aerodrome Forecast
Issued by NWS Austin/San Antonio, TX

Home | Current Version | Previous Version | Text Only | Print | Product List | Glossary On
Versions: 1 2 3 4 5 6 7 8 9 10 11 12 13 14 15 16 17 18 19 20
000
FTUS44 KEWX 180336 AAB
TAFAUS
TAF AMD
KAUS 180336Z 1804/1906 02008KT P6SM SCT005 BKN015
     FM180800 VRB03KT 5SM BR BKN010
     FM181500 18005KT P6SM BKN030
     FM181800 18007KT P6SM SCT030 BKN150 PROB30 1818/1822 3SM -TSRA
      BKN030CB
     FM190000 19005KT P6SM SCT030=

USA.gov is the U.S. government's official web portal to all federal, state and local government web resources and services.